createdAt,value
2023-01-13T00:01:29.899Z,95694.00
2023-01-13T00:03:58.422Z,95693.52
2023-01-13T00:06:27.418Z,95698.52
2023-01-13T00:08:55.472Z,95696.92
2023-01-13T00:11:24.547Z,95698.45
2023-01-13T00:13:52.579Z,95702.06
2023-01-13T00:16:21.359Z,95705.23
2023-01-13T00:18:51.310Z,95706.45
2023-01-13T00:21:24.480Z,95711.04
2023-01-13T00:23:54.222Z,95713.27
2023-01-13T00:26:27.741Z,95714.93
2023-01-13T00:28:59.323Z,95714.62
2023-01-13T00:31:29.275Z,95714.71
2023-01-13T00:33:58.783Z,95714.40
2023-01-13T00:36:27.595Z,95715.42
2023-01-13T00:38:55.574Z,95724.04
2023-01-13T00:41:25.552Z,95720.50
2023-01-13T00:43:53.799Z,95713.60
2023-01-13T00:46:22.235Z,95715.39
2023-01-13T00:48:51.700Z,95716.14
2023-01-13T00:51:21.810Z,95716.58
2023-01-13T00:53:51.723Z,95715.30
2023-01-13T00:56:39.223Z,95715.89
2023-01-13T00:59:11.624Z,95719.40
2023-01-13T01:01:40.767Z,95720.20
2023-01-13T01:04:09.104Z,95721.77
2023-01-13T01:06:37.153Z,95725.83
2023-01-13T01:09:06.150Z,95726.34
2023-01-13T01:11:34.849Z,95721.39
2023-01-13T01:14:04.055Z,95723.80
2023-01-13T01:16:34.294Z,95724.59
2023-01-13T01:19:03.756Z,95720.23
2023-01-13T01:21:32.995Z,95716.49
2023-01-13T01:24:02.743Z,95714.39
2023-01-13T01:26:31.968Z,95708.84
2023-01-13T01:29:02.207Z,95708.09
2023-01-13T01:31:33.333Z,95705.40
2023-01-13T01:34:02.278Z,95703.09
2023-01-13T01:36:30.489Z,95703.36
2023-01-13T01:39:00.002Z,95705.52
2023-01-13T01:41:31.751Z,95704.20
2023-01-13T01:44:07.861Z,95699.08
2023-01-13T01:46:44.080Z,95699.15
2023-01-13T01:49:21.117Z,95694.53
2023-01-13T01:51:52.268Z,95696.08
2023-01-13T01:54:25.039Z,95698.59
2023-01-13T01:56:53.515Z,95696.77
2023-01-13T01:59:21.910Z,95694.59
2023-01-13T02:01:50.759Z,95697.52
2023-01-13T02:04:28.323Z,95692.20
2023-01-13T02:06:57.426Z,95692.11
2023-01-13T02:09:27.004Z,95689.26
2023-01-13T02:12:13.733Z,95689.33
2023-01-13T02:14:42.645Z,95689.84
2023-01-13T02:17:16.538Z,95687.45
2023-01-13T02:20:22.278Z,95680.42
2023-01-13T02:23:32.083Z,95689.08
2023-01-13T02:26:29.287Z,95687.30
2023-01-13T02:29:34.614Z,95691.29
2023-01-13T02:32:17.755Z,95693.20
2023-01-13T02:35:15.001Z,95692.13
2023-01-13T02:37:44.740Z,95691.80
2023-01-13T02:40:25.360Z,95689.57
2023-01-13T02:43:16.596Z,95690.49
2023-01-13T02:45:53.153Z,95692.59
2023-01-13T02:48:24.322Z,95693.44
2023-01-13T02:51:09.594Z,95692.36
2023-01-13T02:53:48.598Z,95693.27
2023-01-13T02:56:17.612Z,95692.37
2023-01-13T02:58:47.289Z,95690.83
2023-01-13T03:01:15.540Z,95689.83
2023-01-13T03:03:44.783Z,95691.93
2023-01-13T03:06:30.971Z,95689.27
2023-01-13T03:09:22.215Z,95688.27
2023-01-13T03:12:21.265Z,95689.62
2023-01-13T03:15:15.857Z,95687.87
2023-01-13T03:18:22.693Z,95685.98
2023-01-13T03:21:12.804Z,95694.38
2023-01-13T03:23:43.644Z,95693.27
2023-01-13T03:26:21.470Z,95693.08
2023-01-13T03:29:03.726Z,95688.33
2023-01-13T03:31:35.273Z,95687.33
2023-01-13T03:34:15.650Z,95686.42
2023-01-13T03:36:48.189Z,95691.88
2023-01-13T03:39:25.471Z,95694.57
2023-01-13T03:42:00.061Z,95695.33
2023-01-13T03:44:34.055Z,95694.34
2023-01-13T03:47:23.431Z,95693.48
2023-01-13T03:50:15.367Z,95694.23
2023-01-13T03:52:49.498Z,95697.33
2023-01-13T03:55:30.399Z,95696.59
2023-01-13T03:58:24.530Z,95699.50
2023-01-13T04:01:17.462Z,95701.96
2023-01-13T04:03:57.606Z,95702.20
2023-01-13T04:06:38.387Z,95700.10
2023-01-13T04:09:31.623Z,95702.92
2023-01-13T04:12:14.244Z,95700.78
2023-01-13T04:14:43.914Z,95702.05
2023-01-13T04:17:12.472Z,95704.03
2023-01-13T04:19:40.531Z,95698.14
2023-01-13T04:22:08.778Z,95701.48
2023-01-13T04:24:37.530Z,95703.95
2023-01-13T04:27:06.440Z,95706.32
2023-01-13T04:29:34.486Z,95708.17
2023-01-13T04:32:02.491Z,95703.56
2023-01-13T04:34:30.761Z,95702.13
2023-01-13T04:36:58.941Z,95705.23
2023-01-13T04:39:27.287Z,95706.70
2023-01-13T04:41:58.228Z,95706.61
2023-01-13T04:44:27.528Z,95704.20
2023-01-13T04:46:55.618Z,95703.89
2023-01-13T04:49:23.640Z,95701.98
2023-01-13T04:51:51.922Z,95704.02
2023-01-13T04:54:20.401Z,95707.91
2023-01-13T04:56:48.646Z,95702.88
2023-01-13T04:59:16.663Z,95704.55
2023-01-13T05:01:44.772Z,95707.95
2023-01-13T05:04:15.624Z,95710.98
2023-01-13T05:06:44.074Z,95711.41
2023-01-13T05:09:13.528Z,95706.23
2023-01-13T05:12:01.256Z,95708.99
2023-01-13T05:14:47.745Z,95707.23
2023-01-13T05:17:23.196Z,95704.52
2023-01-13T05:19:51.389Z,95704.33
2023-01-13T05:22:37.943Z,95705.60
2023-01-13T05:25:21.565Z,95708.05
2023-01-13T05:27:49.806Z,95707.12
2023-01-13T05:30:19.230Z,95709.95
2023-01-13T05:32:47.706Z,95710.52
2023-01-13T05:35:16.291Z,95713.84
2023-01-13T05:37:45.289Z,95716.84
2023-01-13T05:40:34.893Z,95719.85
2023-01-13T05:43:22.122Z,95722.82
2023-01-13T05:45:57.959Z,95718.77
2023-01-13T05:48:43.441Z,95719.07
2023-01-13T05:51:13.312Z,95720.62
2023-01-13T05:53:41.717Z,95724.46
2023-01-13T05:56:11.281Z,95724.95
2023-01-13T05:58:39.546Z,95722.24
2023-01-13T06:01:09.706Z,95720.02
2023-01-13T06:03:38.756Z,95722.59
2023-01-13T06:06:09.196Z,95722.91
2023-01-13T06:08:39.746Z,95722.63
2023-01-13T06:11:08.314Z,95723.48
2023-01-13T06:13:36.571Z,95724.39
2023-01-13T06:16:05.285Z,95726.16
2023-01-13T06:18:33.440Z,95724.87
2023-01-13T06:21:01.611Z,95729.71
2023-01-13T06:23:29.678Z,95729.34
2023-01-13T06:26:14.594Z,95724.70
2023-01-13T06:28:43.176Z,95726.17
2023-01-13T06:31:11.794Z,95729.44
2023-01-13T06:33:46.181Z,95731.36
2023-01-13T06:36:19.477Z,95729.13
2023-01-13T06:38:53.308Z,95731.01
2023-01-13T06:41:40.674Z,95730.70
2023-01-13T06:44:09.374Z,95732.79
2023-01-13T06:46:37.504Z,95729.64
2023-01-13T06:49:07.249Z,95729.87
2023-01-13T06:51:35.351Z,95738.99
2023-01-13T06:54:04.004Z,95740.19
2023-01-13T06:56:32.079Z,95739.30
2023-01-13T06:59:00.379Z,95739.13
2023-01-13T07:01:28.692Z,95739.53
2023-01-13T07:03:58.339Z,95737.27
2023-01-13T07:06:26.581Z,95734.90
2023-01-13T07:08:54.877Z,95731.42
2023-01-13T07:11:23.248Z,95729.51
2023-01-13T07:14:10.142Z,95729.05
2023-01-13T07:16:38.291Z,95726.21
2023-01-13T07:19:06.485Z,95722.67
2023-01-13T07:21:34.614Z,95722.36
2023-01-13T07:24:02.658Z,95724.20
2023-01-13T07:26:31.296Z,95722.02
2023-01-13T07:28:59.269Z,95719.80
2023-01-13T07:31:27.670Z,95716.86
2023-01-13T07:33:55.774Z,95712.70
2023-01-13T07:36:23.874Z,95713.11
2023-01-13T07:38:54.607Z,95710.42
2023-01-13T07:41:41.825Z,95706.50
2023-01-13T07:44:11.165Z,95710.48
2023-01-13T07:46:40.397Z,95713.36
2023-01-13T07:49:09.268Z,95716.55
2023-01-13T07:51:38.559Z,95714.52
2023-01-13T07:54:07.465Z,95720.13
2023-01-13T07:56:35.905Z,95722.17
2023-01-13T07:59:04.067Z,95716.29
2023-01-13T08:01:32.437Z,95718.35
2023-01-13T08:04:00.798Z,95717.21
2023-01-13T08:06:29.160Z,95722.35
2023-01-13T08:08:58.600Z,95716.83
2023-01-13T08:11:26.959Z,95721.68
2023-01-13T08:13:58.198Z,95726.65
2023-01-13T08:16:26.569Z,95724.31
2023-01-13T08:18:55.436Z,95724.52
2023-01-13T08:21:23.505Z,95725.05
2023-01-13T08:23:52.303Z,95725.20
2023-01-13T08:26:20.547Z,95723.09
2023-01-13T08:28:48.587Z,95726.65
2023-01-13T08:31:17.336Z,95723.74
2023-01-13T08:33:45.937Z,95725.78
2023-01-13T08:36:14.136Z,95726.42
2023-01-13T08:38:42.753Z,95729.60
2023-01-13T08:41:12.962Z,95728.48
2023-01-13T08:43:41.560Z,95732.85
2023-01-13T08:46:10.209Z,95735.41
2023-01-13T08:48:38.651Z,95732.88
2023-01-13T08:51:09.044Z,95730.89
2023-01-13T08:53:37.198Z,95725.33
2023-01-13T08:56:11.844Z,95720.30
2023-01-13T08:58:41.116Z,95725.05
2023-01-13T09:01:15.472Z,95718.54
2023-01-13T09:03:43.892Z,95724.13
2023-01-13T09:06:12.318Z,95724.11
2023-01-13T09:08:40.624Z,95717.95
2023-01-13T09:11:44.880Z,95716.04
2023-01-13T09:14:17.720Z,95713.54
2023-01-13T09:16:45.856Z,95710.84
2023-01-13T09:19:14.551Z,95710.52
2023-01-13T09:21:42.881Z,95708.20
2023-01-13T09:24:10.953Z,95704.54
2023-01-13T09:26:39.231Z,95697.95
2023-01-13T09:29:07.545Z,95696.70
2023-01-13T09:31:36.028Z,95698.52
2023-01-13T09:34:25.123Z,95702.88
2023-01-13T09:36:54.204Z,95698.67
2023-01-13T09:39:22.784Z,95700.33
2023-01-13T09:42:20.600Z,95694.59
2023-01-13T09:44:58.165Z,95687.68
2023-01-13T09:47:32.259Z,95686.70
2023-01-13T09:50:20.309Z,95683.84
2023-01-13T09:52:49.287Z,95679.88
2023-01-13T09:55:37.323Z,95680.21
2023-01-13T09:58:14.864Z,95685.28
2023-01-13T10:00:47.414Z,95684.30
2023-01-13T10:03:16.013Z,95687.59
2023-01-13T10:05:56.751Z,95684.89
2023-01-13T10:08:33.132Z,95683.92
2023-01-13T10:11:25.707Z,95683.16
2023-01-13T10:14:00.140Z,95677.91
2023-01-13T10:16:44.617Z,95678.77
2023-01-13T10:19:34.852Z,95681.41
2023-01-13T10:22:29.709Z,95681.98
2023-01-13T10:25:32.297Z,95678.85
2023-01-13T10:28:13.793Z,95675.24
2023-01-13T10:30:44.606Z,95670.13
2023-01-13T10:33:19.221Z,95668.94
2023-01-13T10:36:14.010Z,95663.75
2023-01-13T10:38:45.775Z,95666.25
2023-01-13T10:41:19.090Z,95666.86
2023-01-13T10:44:18.433Z,95661.86
2023-01-13T10:46:59.084Z,95662.89
2023-01-13T10:49:31.071Z,95661.56
2023-01-13T10:52:02.173Z,95659.74
2023-01-13T10:54:31.085Z,95658.38
2023-01-13T10:57:37.994Z,95654.97
2023-01-13T11:00:25.783Z,95647.44
2023-01-13T11:03:22.780Z,95642.91
2023-01-13T11:05:57.613Z,95634.17
2023-01-13T11:08:46.382Z,95628.21
2023-01-13T11:11:28.653Z,95628.85
2023-01-13T11:14:21.189Z,95626.11
2023-01-13T11:16:55.353Z,95622.67
2023-01-13T11:19:27.848Z,95618.79
2023-01-13T11:22:11.770Z,95620.43
2023-01-13T11:25:15.605Z,95615.45
2023-01-13T11:27:47.185Z,95610.05
2023-01-13T11:30:37.068Z,95605.46
2023-01-13T11:33:14.177Z,95605.63
2023-01-13T11:35:47.814Z,95604.00
2023-01-13T11:38:27.613Z,95603.86
2023-01-13T11:41:06.953Z,95603.24
2023-01-13T11:44:12.990Z,95595.45
2023-01-13T11:46:42.510Z,95592.48
2023-01-13T11:49:22.336Z,95591.86
2023-01-13T11:51:57.925Z,95588.22
2023-01-13T11:54:46.260Z,95585.41
2023-01-13T11:57:40.338Z,95586.36
2023-01-13T12:00:41.794Z,95580.10
2023-01-13T12:03:20.423Z,95577.20
2023-01-13T12:06:03.130Z,95573.49
2023-01-13T12:08:41.730Z,95578.41
2023-01-13T12:12:09.743Z,95574.33
2023-01-13T12:14:53.302Z,95572.74
2023-01-13T12:17:29.827Z,95570.11
2023-01-13T12:19:59.742Z,95570.61
2023-01-13T12:22:31.963Z,95571.52
2023-01-13T12:25:04.150Z,95564.70
2023-01-13T12:27:45.910Z,95566.81
2023-01-13T12:30:18.605Z,95570.36
2023-01-13T12:32:47.626Z,95566.94
2023-01-13T12:35:23.609Z,95565.33
2023-01-13T12:38:02.389Z,95561.55
2023-01-13T12:40:49.445Z,95562.33
2023-01-13T12:43:39.023Z,95563.71
2023-01-13T12:46:19.273Z,95559.01
2023-01-13T12:48:59.615Z,95562.98
2023-01-13T12:51:28.822Z,95566.30
2023-01-13T12:53:58.349Z,95561.64
2023-01-13T12:56:40.240Z,95562.38
2023-01-13T12:59:17.863Z,95562.84
2023-01-13T13:01:48.821Z,95562.48
2023-01-13T13:04:41.813Z,95563.75
2023-01-13T13:07:21.169Z,95565.12
2023-01-13T13:09:55.096Z,95564.13
2023-01-13T13:13:09.480Z,95566.23
2023-01-13T13:15:37.821Z,95570.21
2023-01-13T13:18:08.762Z,95568.20
2023-01-13T13:21:06.401Z,95563.34
2023-01-13T13:23:37.326Z,95563.30
2023-01-13T13:26:32.037Z,95564.53
2023-01-13T13:29:03.006Z,95568.46
2023-01-13T13:31:37.061Z,95566.88
2023-01-13T13:34:20.139Z,95569.40
2023-01-13T13:37:06.748Z,95570.55
2023-01-13T13:39:53.857Z,95567.69
2023-01-13T13:42:37.304Z,95565.53
2023-01-13T13:45:40.270Z,95567.75
2023-01-13T13:48:31.120Z,95561.28
2023-01-13T13:51:04.847Z,95561.80
2023-01-13T13:53:40.389Z,95559.71
2023-01-13T13:56:23.137Z,95558.41
2023-01-13T13:58:52.995Z,95558.04
2023-01-13T14:01:35.303Z,95557.51
2023-01-13T14:04:05.416Z,95560.85
2023-01-13T14:06:34.437Z,95557.14
2023-01-13T14:09:04.227Z,95560.83
2023-01-13T14:11:33.564Z,95562.23
2023-01-13T14:14:21.908Z,95558.64
2023-01-13T14:16:51.802Z,95559.27
2023-01-13T14:19:29.673Z,95562.80
2023-01-13T14:22:01.277Z,95563.38
2023-01-13T14:24:32.072Z,95573.09
2023-01-13T14:27:14.276Z,95573.91
2023-01-13T14:29:43.467Z,95573.27
2023-01-13T14:32:19.010Z,95570.06
2023-01-13T14:34:47.900Z,95573.23
2023-01-13T14:37:28.159Z,95577.13
2023-01-13T14:39:56.544Z,95574.85
2023-01-13T14:42:27.724Z,95575.55
2023-01-13T14:44:56.431Z,95575.90
2023-01-13T14:47:32.218Z,95578.81
2023-01-13T14:50:31.592Z,95578.45
2023-01-13T14:53:01.193Z,95582.37
2023-01-13T14:55:29.401Z,95579.17
2023-01-13T14:58:17.895Z,95578.49
2023-01-13T15:00:46.181Z,95582.08
2023-01-13T15:03:17.199Z,95580.95
2023-01-13T15:05:47.955Z,95577.55
2023-01-13T15:08:26.219Z,95577.58
2023-01-13T15:11:03.038Z,95577.45
2023-01-13T15:13:41.184Z,95576.98
2023-01-13T15:16:18.791Z,95577.06
2023-01-13T15:18:47.140Z,95575.61
2023-01-13T15:21:18.558Z,95574.58
2023-01-13T15:23:47.503Z,95573.14
2023-01-13T15:26:28.428Z,95579.52
2023-01-13T15:28:58.519Z,95583.55
2023-01-13T15:31:28.309Z,95583.09
2023-01-13T15:33:58.870Z,95578.48
2023-01-13T15:36:30.149Z,95575.46
2023-01-13T15:38:59.896Z,95573.98
2023-01-13T15:41:46.863Z,95574.45
2023-01-13T15:44:35.090Z,95572.67
2023-01-13T15:47:07.677Z,95569.48
2023-01-13T15:49:43.276Z,95573.52
2023-01-13T15:52:29.605Z,95578.90
2023-01-13T15:54:57.688Z,95580.98
2023-01-13T15:57:28.890Z,95579.44
2023-01-13T16:00:00.730Z,95575.80
2023-01-13T16:02:31.019Z,95574.32
2023-01-13T16:04:59.409Z,95579.80
2023-01-13T16:07:27.695Z,95575.88
2023-01-13T16:09:56.466Z,95574.09
2023-01-13T16:12:24.573Z,95575.80
2023-01-13T16:14:52.795Z,95577.50
2023-01-13T16:17:24.245Z,95578.66
2023-01-13T16:19:52.610Z,95577.41
2023-01-13T16:22:20.679Z,95573.08
2023-01-13T16:24:48.818Z,95577.80
2023-01-13T16:27:18.260Z,95578.89
2023-01-13T16:29:48.027Z,95582.06
2023-01-13T16:32:17.008Z,95586.61
2023-01-13T16:34:45.188Z,95587.54
2023-01-13T16:37:25.967Z,95592.40
2023-01-13T16:39:55.386Z,95590.36
2023-01-13T16:42:23.672Z,95595.70
2023-01-13T16:44:53.091Z,95597.26
2023-01-13T16:47:23.009Z,95591.15
2023-01-13T16:49:51.715Z,95593.50
2023-01-13T16:52:19.819Z,95591.08
2023-01-13T16:54:48.074Z,95592.43
2023-01-13T16:57:16.553Z,95597.45
2023-01-13T16:59:44.801Z,95594.07
2023-01-13T17:02:16.079Z,95592.22
2023-01-13T17:04:44.898Z,95595.60
2023-01-13T17:07:16.697Z,95594.09
2023-01-13T17:09:44.845Z,95592.08
2023-01-13T17:12:13.090Z,95591.65
2023-01-13T17:14:43.462Z,95594.09
2023-01-13T17:17:26.442Z,95593.45
2023-01-13T17:19:54.768Z,95594.92
2023-01-13T17:22:23.257Z,95597.24
2023-01-13T17:24:51.342Z,95599.23
2023-01-13T17:27:21.366Z,95599.15
2023-01-13T17:29:50.556Z,95599.84
2023-01-13T17:32:20.903Z,95601.27
2023-01-13T17:34:50.396Z,95598.89
2023-01-13T17:37:18.579Z,95594.80
2023-01-13T17:39:48.677Z,95594.77
2023-01-13T17:42:17.350Z,95594.43
2023-01-13T17:44:46.991Z,95594.70
2023-01-13T17:47:15.398Z,95595.77
2023-01-13T17:49:43.436Z,95593.14
2023-01-13T17:52:11.637Z,95594.23
2023-01-13T17:54:40.084Z,95592.51
2023-01-13T17:57:08.458Z,95591.17
2023-01-13T17:59:36.511Z,95592.88
2023-01-13T18:02:05.146Z,95593.15
2023-01-13T18:04:33.553Z,95595.94
2023-01-13T18:07:01.557Z,95593.80
2023-01-13T18:09:29.630Z,95591.45
2023-01-13T18:11:58.938Z,95590.62
2023-01-13T18:14:28.356Z,95590.38
2023-01-13T18:16:56.770Z,95591.27
2023-01-13T18:19:43.560Z,95591.73
2023-01-13T18:22:32.545Z,95585.27
2023-01-13T18:25:19.995Z,95585.04
2023-01-13T18:27:49.321Z,95589.59
2023-01-13T18:30:17.804Z,95593.95
2023-01-13T18:32:45.928Z,95592.03
2023-01-13T18:35:14.003Z,95591.98
2023-01-13T18:37:42.487Z,95590.20
2023-01-13T18:40:12.732Z,95591.92
2023-01-13T18:42:59.367Z,95589.41
2023-01-13T18:45:29.751Z,95589.13
2023-01-13T18:48:01.768Z,95589.98
2023-01-13T18:50:30.597Z,95590.63
2023-01-13T18:52:58.988Z,95595.83
2023-01-13T18:55:30.814Z,95590.42
2023-01-13T18:57:59.293Z,95589.78
2023-01-13T19:00:27.502Z,95588.80
2023-01-13T19:05:35.244Z,95592.05
2023-01-13T19:08:04.527Z,95594.27
2023-01-13T19:10:32.916Z,95590.63
2023-01-13T19:13:01.902Z,95596.30
2023-01-13T19:15:30.558Z,95591.18
2023-01-13T19:17:58.770Z,95587.21
2023-01-13T19:20:27.166Z,95587.81
2023-01-13T19:22:55.458Z,95590.25
2023-01-13T19:25:23.621Z,95588.83
2023-01-13T19:27:51.950Z,95590.14
2023-01-13T19:30:20.572Z,95591.64
2023-01-13T19:32:48.926Z,95594.23
2023-01-13T19:35:18.143Z,95588.59
2023-01-13T19:37:46.252Z,95591.17
2023-01-13T19:40:14.471Z,95588.33
2023-01-13T19:43:02.289Z,95591.48
2023-01-13T19:45:32.270Z,95596.69
2023-01-13T19:48:05.283Z,95597.83
2023-01-13T19:50:41.452Z,95595.96
2023-01-13T19:53:17.650Z,95596.77
2023-01-13T19:55:48.597Z,95598.09
2023-01-13T19:58:19.128Z,95596.56
2023-01-13T20:00:48.496Z,95603.13
2023-01-13T20:03:20.731Z,95602.67
2023-01-13T20:05:49.021Z,95602.70
2023-01-13T20:08:19.218Z,95599.96
2023-01-13T20:10:48.565Z,95602.36
2023-01-13T20:13:16.745Z,95598.08
2023-01-13T20:15:44.819Z,95605.92
2023-01-13T20:18:12.904Z,95606.62
2023-01-13T20:20:40.981Z,95602.96
2023-01-13T20:23:09.580Z,95607.61
2023-01-13T20:25:41.389Z,95603.48
2023-01-13T20:28:09.621Z,95603.11
2023-01-13T20:30:40.167Z,95609.91
2023-01-13T20:33:08.232Z,95613.69
2023-01-13T20:35:36.926Z,95617.98
2023-01-13T20:38:05.107Z,95614.45
2023-01-13T20:40:33.056Z,95614.46
2023-01-13T20:43:01.051Z,95611.77
2023-01-13T20:45:29.452Z,95610.04
2023-01-13T20:47:57.533Z,95610.52
2023-01-13T20:50:25.824Z,95612.76
2023-01-13T20:52:53.922Z,95614.36
2023-01-13T20:55:22.203Z,95617.30
2023-01-13T20:57:50.813Z,95617.88
2023-01-13T21:00:19.613Z,95615.02
2023-01-13T21:02:47.544Z,95619.16
2023-01-13T21:05:15.819Z,95619.20
2023-01-13T21:07:44.125Z,95619.33
2023-01-13T21:10:12.217Z,95625.19
2023-01-13T21:12:58.822Z,95624.20
2023-01-13T21:15:27.733Z,95626.77
2023-01-13T21:18:14.354Z,95629.70
2023-01-13T21:20:42.509Z,95627.54
2023-01-13T21:23:10.965Z,95632.29
2023-01-13T21:25:40.345Z,95634.59
2023-01-13T21:28:11.962Z,95635.52
2023-01-13T21:30:40.063Z,95637.84
2023-01-13T21:33:13.417Z,95637.51
2023-01-13T21:35:42.241Z,95640.88
2023-01-13T21:38:11.650Z,95645.01
2023-01-13T21:40:39.678Z,95645.11
2023-01-13T21:43:30.786Z,95638.73
2023-01-13T21:46:17.609Z,95641.58
2023-01-13T21:48:45.701Z,95641.81
2023-01-13T21:51:13.728Z,95648.29
2023-01-13T21:53:41.849Z,95646.45
2023-01-13T21:56:10.106Z,95649.20
2023-01-13T21:58:39.139Z,95653.52
2023-01-13T22:01:09.809Z,95656.27
2023-01-13T22:03:59.688Z,95658.98
2023-01-13T22:06:28.355Z,95665.10
2023-01-13T22:09:00.006Z,95665.32
2023-01-13T22:11:28.906Z,95659.56
2023-01-13T22:14:06.606Z,95654.08
2023-01-13T22:16:41.777Z,95655.81
2023-01-13T22:19:11.082Z,95660.88
2023-01-13T22:21:40.279Z,95665.86
2023-01-13T22:24:09.484Z,95666.56
2023-01-13T22:26:37.549Z,95664.77
2023-01-13T22:29:05.698Z,95660.67
2023-01-13T22:31:33.780Z,95657.73
2023-01-13T22:34:01.826Z,95651.24
2023-01-13T22:36:30.003Z,95657.05
2023-01-13T22:39:00.341Z,95660.02
2023-01-13T22:41:28.380Z,95663.31
2023-01-13T22:43:56.529Z,95665.25
2023-01-13T22:46:24.748Z,95663.98
2023-01-13T22:48:54.899Z,95658.11
2023-01-13T22:51:23.277Z,95658.93
2023-01-13T22:53:51.471Z,95662.62
2023-01-13T22:56:22.314Z,95661.70
2023-01-13T22:59:01.674Z,95666.06
2023-01-13T23:01:32.985Z,95665.99
2023-01-13T23:04:02.645Z,95662.61
2023-01-13T23:06:33.039Z,95664.38
2023-01-13T23:09:01.623Z,95663.19
2023-01-13T23:11:30.962Z,95660.46
2023-01-13T23:14:01.383Z,95660.83
2023-01-13T23:16:31.368Z,95660.74
2023-01-13T23:18:59.489Z,95657.23
2023-01-13T23:21:31.294Z,95653.29
2023-01-13T23:24:00.338Z,95653.11
2023-01-13T23:26:29.469Z,95653.66
2023-01-13T23:29:03.898Z,95651.57
2023-01-13T23:31:32.081Z,95650.33
2023-01-13T23:34:00.554Z,95645.66
2023-01-13T23:36:29.219Z,95645.30
2023-01-13T23:38:59.522Z,95642.84
2023-01-13T23:41:28.375Z,95646.87
2023-01-13T23:44:00.953Z,95640.16
2023-01-13T23:46:31.342Z,95636.88
2023-01-13T23:49:01.083Z,95634.52
2023-01-13T23:51:30.342Z,95631.28
2023-01-13T23:53:59.929Z,95629.91
2023-01-13T23:56:30.708Z,95631.16
2023-01-13T23:58:59.455Z,95632.88
